Pittsburgh, Pennsylvania
Traffic Map
Current Weather Conditions
Pittsburgh, Pennsylvania
Clear
Clear
56°
Feels Like: 56°
Wind Chill: 56° Ceiling: Unl
Heat Index: 56° Visibility: 10mi
Dew Point: 48° Wind: 3mph
Humidity: 75% Direction: 340° (NNW)
Pressure: 30.05in Gusts: 0mph
Raw Report DataKAGC 250853Z AUTO 34003KT 10SM CLR 13/09 A3005 RMK AO2 SLP176 T01330089 55001 TSNO
Traffic Incident Summary
Active as of:
Severity:
Category:
InformationThere was an issue retrieving the traffic information for this location. Please try a different location or try again shortly.
Advertisements
Track Severe Weather on mobile